Time;durP1;ratioP1;P1;durP2;ratioP2;P2;SDS_P1;SDS_P2;PMS_P1;PMS_P2;Temp;Humidity;BMP_temperature;BMP_pressure;BME280_temperature;BME280_humidity;BME280_pressure;Samples;Min_cycle;Max_cycle;Signal;HPM_P1;HPM_P2
2022/12/07 00:00:46;;;;;;;29.95;25.85;;;;;;;6.36;76.22;94907.69;5020924;28;20202;-73
2022/12/07 00:03:13;;;;;;;29.20;26.10;;;;;;;6.35;76.68;94909.59;5020767;28;20233;-73
2022/12/07 00:05:42;;;;;;;29.20;24.92;;;;;;;6.37;76.47;94904.59;5020891;28;20198;-73
2022/12/07 00:08:09;;;;;;;28.67;25.33;;;;;;;6.38;76.02;94902.66;5038474;28;20191;-73
2022/12/07 00:10:36;;;;;;;27.83;24.77;;;;;;;6.37;76.41;94907.34;5038443;28;20191;-73
2022/12/07 00:13:03;;;;;;;27.85;24.88;;;;;;;6.37;76.58;94898.31;5020391;28;20202;-73
2022/12/07 00:15:30;;;;;;;29.08;25.98;;;;;;;6.30;76.86;94900.78;5038244;28;20202;-73
2022/12/07 00:17:56;;;;;;;27.73;24.75;;;;;;;6.32;77.27;94903.97;5037649;28;20205;-73
2022/12/07 00:20:23;;;;;;;28.90;25.80;;;;;;;6.35;77.08;94908.81;5037002;28;20202;-73
2022/12/07 00:22:51;;;;;;;29.80;26.65;;;;;;;6.33;77.22;94908.34;5020508;28;20205;-74
2022/12/07 00:25:19;;;;;;;27.42;24.58;;;;;;;6.32;76.92;94901.22;5037741;28;20269;-73
2022/12/07 00:27:46;;;;;;;25.67;23.05;;;;;;;6.31;77.03;94908.66;5017116;28;20285;-73
2022/12/07 00:30:13;;;;;;;25.10;22.45;;;;;;;6.31;77.50;94902.38;5018313;28;20203;-73
2022/12/07 00:32:40;;;;;;;24.92;22.33;;;;;;;6.27;77.67;94900.28;5017467;28;20203;-73
2022/12/07 00:35:08;;;;;;;26.45;23.08;;;;;;;6.22;77.48;94899.69;5017130;28;20203;-74
2022/12/07 00:37:34;;;;;;;25.00;22.33;;;;;;;6.23;77.87;94914.97;5017317;28;20203;-73
2022/12/07 00:40:03;;;;;;;25.27;22.58;;;;;;;6.27;77.77;94919.47;5017342;28;20207;-73
2022/12/07 00:42:30;;;;;;;25.58;22.98;;;;;;;6.31;77.28;94902.38;5017071;28;20203;-74
2022/12/07 00:44:57;;;;;;;25.75;23.05;;;;;;;6.31;77.37;94907.84;5016362;28;20675;-74
2022/12/07 00:47:24;;;;;;;25.88;23.30;;;;;;;6.31;76.89;94899.63;5016945;28;20275;-74
2022/12/07 00:49:50;;;;;;;26.00;23.20;;;;;;;6.30;77.13;94900.78;5016641;28;20207;-74
2022/12/07 00:52:17;;;;;;;25.38;22.65;;;;;;;6.26;77.45;94901.44;5016623;28;20209;-74
2022/12/07 00:54:44;;;;;;;26.33;23.73;;;;;;;6.25;77.62;94899.84;5017095;28;20202;-73
2022/12/07 00:57:13;;;;;;;24.52;22.05;;;;;;;6.21;77.44;94900.84;5017479;28;20253;-73
2022/12/07 00:59:40;;;;;;;23.52;21.13;;;;;;;6.20;77.61;94899.19;5017113;28;20202;-73
2022/12/07 01:02:06;;;;;;;24.15;21.70;;;;;;;6.20;77.53;94901.94;5016440;28;20191;-73
2022/12/07 01:04:35;;;;;;;24.23;21.77;;;;;;;6.17;77.55;94905.34;5016475;28;20227;-73
2022/12/07 01:07:02;;;;;;;23.95;21.50;;;;;;;6.11;77.58;94902.00;5016720;28;20207;-73
2022/12/07 01:09:29;;;;;;;22.42;19.70;;;;;;;6.11;77.63;94895.72;5016721;28;20195;-72
2022/12/07 01:11:55;;;;;;;21.73;19.00;;;;;;;6.10;77.93;94896.81;5017376;28;20198;-73
2022/12/07 01:14:23;;;;;;;20.30;18.27;;;;;;;6.12;77.92;94892.63;5017129;28;20268;-73
2022/12/07 01:16:51;;;;;;;21.95;19.75;;;;;;;6.15;77.92;94894.72;5016400;28;20207;-72
2022/12/07 01:19:17;;;;;;;19.98;17.98;;;;;;;6.18;77.83;94891.31;5016474;28;20202;-72
2022/12/07 01:21:44;;;;;;;22.25;19.88;;;;;;;6.18;77.65;94888.59;5016142;28;20203;-73
2022/12/07 01:24:12;;;;;;;22.92;19.02;;;;;;;6.18;77.64;94885.06;5016346;28;20219;-73
2022/12/07 01:26:39;;;;;;;21.08;18.98;;;;;;;6.17;77.84;94878.78;5016356;28;20246;-73
2022/12/07 01:29:07;;;;;;;21.98;19.63;;;;;;;6.17;78.08;94880.69;5015759;28;20246;-72
2022/12/07 01:31:35;;;;;;;21.17;18.98;;;;;;;6.13;77.86;94877.81;5016262;28;20206;-73
2022/12/07 01:34:03;;;;;;;21.27;19.17;;;;;;;6.13;78.16;94879.75;5015679;28;20218;-73
2022/12/07 01:36:31;;;;;;;20.60;18.48;;;;;;;6.14;78.35;94876.69;5015889;28;20195;-73
2022/12/07 01:38:59;;;;;;;20.60;18.55;;;;;;;6.12;78.14;94881.69;5015604;28;20203;-73
2022/12/07 01:41:27;;;;;;;20.75;18.55;;;;;;;6.11;78.29;94885.56;5016025;28;20195;-73
2022/12/07 01:44:16;;;;;;;20.55;18.45;;;;;;;6.11;78.13;94880.09;5016029;28;20222;-73
2022/12/07 01:46:45;;;;;;;18.95;17.13;;;;;;;6.10;78.05;94875.75;5015663;28;20210;-73
2022/12/07 01:49:17;;;;;;;21.60;19.27;;;;;;;6.09;77.90;94870.59;5015870;28;20202;-73
2022/12/07 01:51:46;;;;;;;19.65;17.55;;;;;;;6.05;78.00;94875.91;5016718;28;20194;-73
2022/12/07 01:54:14;;;;;;;20.95;18.95;;;;;;;6.06;78.11;94868.50;5015214;28;20210;-73
2022/12/07 01:56:41;;;;;;;19.90;17.90;;;;;;;6.07;78.29;94868.19;5015634;28;20199;-72
2022/12/07 01:59:09;;;;;;;21.10;18.90;;;;;;;6.09;78.40;94862.38;5015969;28;20210;-72
2022/12/07 02:01:35;;;;;;;20.27;18.05;;;;;;;6.09;78.30;94865.91;5015494;28;20599;-74
2022/12/07 02:04:04;;;;;;;20.02;18.02;;;;;;;6.09;78.26;94863.16;5015241;28;20562;-74
2022/12/07 02:06:31;;;;;;;19.90;17.77;;;;;;;6.06;78.05;94872.03;5015273;28;20207;-73
2022/12/07 02:08:58;;;;;;;19.00;17.20;;;;;;;6.06;78.32;94860.28;5015634;28;20206;-74
2022/12/07 02:11:25;;;;;;;19.63;17.70;;;;;;;6.03;78.51;94862.56;5015236;28;20199;-74
2022/12/07 02:13:52;;;;;;;19.83;17.73;;;;;;;6.06;78.79;94861.09;5031901;28;20187;-73
2022/12/07 02:16:28;;;;;;;19.25;17.25;;;;;;;6.08;78.52;94863.50;5015695;28;20571;-73
2022/12/07 02:19:05;;;;;;;18.38;16.48;;;;;;;6.09;78.47;94860.44;5016316;28;20207;-73
2022/12/07 02:21:39;;;;;;;18.67;16.75;;;;;;;6.07;78.57;94857.25;5015752;28;20203;-73
2022/12/07 02:24:16;;;;;;;19.83;17.83;;;;;;;6.08;78.32;94858.84;5015389;28;20672;-73
2022/12/07 02:26:58;;;;;;;18.52;16.52;;;;;;;6.06;78.52;94852.88;5015536;28;20210;-73
2022/12/07 02:29:30;;;;;;;19.48;17.42;;;;;;;6.00;78.52;94849.53;4996006;28;20211;-73
2022/12/07 02:32:05;;;;;;;18.40;16.55;;;;;;;5.97;78.29;94855.66;4995625;28;20192;-73
2022/12/07 02:34:37;;;;;;;18.38;16.48;;;;;;;5.96;78.30;94853.25;4996159;28;20240;-73
2022/12/07 02:37:09;;;;;;;18.42;16.52;;;;;;;5.95;78.81;94849.69;4996482;28;20211;-73
2022/12/07 02:39:41;;;;;;;18.73;16.90;;;;;;;5.95;78.79;94855.16;4995647;28;20207;-72
2022/12/07 02:42:13;;;;;;;18.63;16.83;;;;;;;5.96;78.42;94851.31;4995439;28;20196;-72
2022/12/07 02:44:41;;;;;;;18.60;15.98;;;;;;;5.99;78.38;94853.41;4995684;28;20219;-72
2022/12/07 02:47:10;;;;;;;16.90;15.13;;;;;;;6.00;78.38;94846.78;4996288;28;20246;-72
2022/12/07 02:49:37;;;;;;;18.10;15.70;;;;;;;5.99;78.38;94849.84;4995741;28;20563;-72
2022/12/07 02:52:05;;;;;;;17.52;15.55;;;;;;;6.02;78.17;94839.03;4994764;28;20207;-72
2022/12/07 02:54:31;;;;;;;17.52;15.77;;;;;;;6.01;78.23;94837.44;4995901;28;20204;-72
2022/12/07 02:57:04;;;;;;;17.95;16.05;;;;;;;5.97;78.24;94830.22;4995680;28;20196;-72
2022/12/07 02:59:37;;;;;;;17.92;16.23;;;;;;;5.94;78.28;94837.16;4995505;28;20214;-72
2022/12/07 03:02:14;;;;;;;18.60;16.73;;;;;;;5.84;78.33;94826.53;4995428;28;20203;-72
2022/12/07 03:04:46;;;;;;;19.38;17.38;;;;;;;5.79;78.22;94827.53;5011749;28;20230;-72
2022/12/07 03:07:21;;;;;;;19.95;17.95;;;;;;;5.82;78.45;94828.00;4995732;28;20199;-72
2022/12/07 03:09:54;;;;;;;19.63;17.60;;;;;;;5.82;78.29;94828.00;5011778;28;20203;-72
2022/12/07 03:12:27;;;;;;;19.02;17.13;;;;;;;5.81;78.64;94824.47;5011127;28;20218;-73
2022/12/07 03:15:00;;;;;;;19.83;16.80;;;;;;;5.84;78.42;94831.19;4995117;28;20234;-73
2022/12/07 03:17:33;;;;;;;19.85;17.95;;;;;;;5.83;78.74;94824.13;4995058;28;20196;-73
2022/12/07 03:20:04;;;;;;;24.98;22.48;;;;;;;5.76;78.20;94821.91;5011230;28;20200;-73
2022/12/07 03:22:32;;;;;;;22.98;20.65;;;;;;;5.72;78.42;94835.44;5011925;28;20215;-73
2022/12/07 03:25:02;;;;;;;21.42;19.23;;;;;;;5.69;78.52;94827.09;4995804;28;20220;-73
2022/12/07 03:27:33;;;;;;;18.48;16.67;;;;;;;5.68;78.74;94830.94;5000908;28;20285;-73
2022/12/07 03:30:03;;;;;;;19.58;17.58;;;;;;;5.68;79.27;94830.94;5014894;28;20211;-73
2022/12/07 03:32:35;;;;;;;20.73;18.63;;;;;;;5.70;78.71;94831.41;5014332;28;20235;-73
2022/12/07 03:35:05;;;;;;;22.40;20.20;;;;;;;5.71;79.26;94835.78;5014771;28;20194;-73
2022/12/07 03:37:35;;;;;;;22.33;20.05;;;;;;;5.71;78.68;94830.31;5015519;28;20191;-73
2022/12/07 03:40:11;;;;;;;21.73;19.52;;;;;;;5.73;78.91;94828.81;5015161;28;20215;-73
2022/12/07 03:42:39;;;;;;;21.58;19.35;;;;;;;5.75;78.86;94831.25;5015289;28;20198;-74
2022/12/07 03:45:07;;;;;;;20.30;18.30;;;;;;;5.75;78.87;94834.00;5015563;28;20222;-73
2022/12/07 03:47:40;;;;;;;19.10;17.10;;;;;;;5.76;78.77;94835.59;5015321;28;20192;-73
2022/12/07 03:50:10;;;;;;;18.50;16.60;;;;;;;5.76;78.44;94830.91;5014975;28;20207;-73
2022/12/07 03:52:41;;;;;;;18.67;16.77;;;;;;;5.76;78.78;94825.44;5015296;28;20210;-73
2022/12/07 03:55:10;;;;;;;18.52;16.63;;;;;;;5.76;78.92;94828.19;5014210;28;20199;-73
2022/12/07 03:57:39;;;;;;;20.77;17.50;;;;;;;5.76;78.79;94825.44;5014265;28;20203;-73
2022/12/07 04:00:08;;;;;;;20.70;17.85;;;;;;;5.76;78.59;94822.69;5014890;28;20203;-73
2022/12/07 04:02:37;;;;;;;20.48;18.38;;;;;;;5.76;78.13;94819.16;5016113;28;20199;-71
2022/12/07 04:05:07;;;;;;;21.55;19.42;;;;;;;5.73;78.52;94815.13;5017777;28;20219;-71
2022/12/07 04:07:33;;;;;;;21.25;18.95;;;;;;;5.71;78.44;94822.91;5017604;28;20203;-71
2022/12/07 04:10:00;;;;;;;22.15;20.02;;;;;;;5.67;78.31;94824.69;5017649;28;20199;-71
2022/12/07 04:12:29;;;;;;;22.05;19.75;;;;;;;5.67;78.35;94819.22;5017136;28;20191;-71
2022/12/07 04:15:16;;;;;;;21.65;19.55;;;;;;;5.70;78.62;94813.09;5017947;28;20207;-71
2022/12/07 04:18:04;;;;;;;22.52;20.33;;;;;;;5.68;78.50;94823.53;5018147;28;20199;-71
2022/12/07 04:20:51;;;;;;;21.30;18.48;;;;;;;5.70;78.44;94810.34;5018398;28;20203;-73
2022/12/07 04:23:18;;;;;;;21.52;17.50;;;;;;;5.71;78.32;94811.16;5018217;28;20195;-72
2022/12/07 04:25:45;;;;;;;20.13;17.25;;;;;;;5.73;78.42;94819.81;5018253;28;20207;-72
2022/12/07 04:28:12;;;;;;;20.73;16.92;;;;;;;5.75;78.20;94823.03;5028861;28;20257;-72
2022/12/07 04:30:39;;;;;;;20.35;16.65;;;;;;;5.72;78.35;94821.75;5037394;28;20195;-72
2022/12/07 04:33:08;;;;;;;18.33;16.30;;;;;;;5.73;78.40;94825.28;5020339;28;20195;-72
2022/12/07 04:35:35;;;;;;;21.42;17.38;;;;;;;5.73;78.25;94814.34;5021144;28;20202;-72
2022/12/07 04:38:02;;;;;;;19.52;16.42;;;;;;;5.69;78.24;94819.66;5020306;28;20201;-72
2022/12/07 04:40:29;;;;;;;20.88;16.92;;;;;;;5.65;78.15;94826.94;5020536;28;20202;-72
2022/12/07 04:42:55;;;;;;;19.75;17.10;;;;;;;5.63;78.76;94823.75;5020414;28;20198;-72
2022/12/07 04:45:22;;;;;;;19.33;17.23;;;;;;;5.62;78.58;94830.31;5020198;28;20214;-72
2022/12/07 04:47:49;;;;;;;20.55;16.80;;;;;;;5.65;78.43;94828.88;5020417;28;20578;-72
2022/12/07 04:50:17;;;;;;;20.80;17.33;;;;;;;5.65;78.44;94834.34;5037232;28;20190;-72
2022/12/07 04:52:46;;;;;;;19.60;16.60;;;;;;;5.67;78.40;94832.91;5020060;28;20213;-72
2022/12/07 04:55:14;;;;;;;22.60;17.27;;;;;;;5.65;78.15;94828.88;5019901;28;20194;-72
2022/12/07 04:57:43;;;;;;;20.90;17.13;;;;;;;5.64;78.24;94833.53;5037139;28;20198;-73
2022/12/07 05:00:11;;;;;;;22.48;18.38;;;;;;;5.66;78.17;94830.47;5037182;28;20694;-72
2022/12/07 05:02:39;;;;;;;21.45;17.92;;;;;;;5.64;78.10;94830.00;5019874;28;20289;-72
2022/12/07 05:05:08;;;;;;;21.25;18.23;;;;;;;5.64;77.97;94830.81;5019429;28;20283;-72
2022/12/07 05:07:36;;;;;;;20.73;17.42;;;;;;;5.64;78.06;94838.22;5019759;28;20210;-72
2022/12/07 05:10:03;;;;;;;19.55;16.88;;;;;;;5.66;78.41;94836.75;5020270;28;20202;-73
2022/12/07 05:12:30;;;;;;;20.77;17.27;;;;;;;5.65;78.33;94826.13;5037164;28;20198;-73
2022/12/07 05:14:57;;;;;;;21.70;17.50;;;;;;;5.65;78.37;94824.19;5036053;28;20595;-72
2022/12/07 05:17:23;;;;;;;23.13;20.90;;;;;;;5.64;78.00;94830.81;5019725;28;20435;-72
2022/12/07 05:19:50;;;;;;;21.48;19.08;;;;;;;5.64;78.28;94836.28;5020378;28;20293;-71
2022/12/07 05:22:17;;;;;;;20.75;18.65;;;;;;;5.64;78.48;94839.00;5019909;28;20511;-72
2022/12/07 05:24:47;;;;;;;19.52;17.52;;;;;;;5.64;78.45;94833.53;5019557;28;20226;-72
2022/12/07 05:27:15;;;;;;;20.42;18.25;;;;;;;5.66;78.67;94831.25;5019455;28;20238;-72
2022/12/07 05:29:43;;;;;;;19.63;17.73;;;;;;;5.69;78.84;94833.34;5019696;28;20209;-72
2022/12/07 05:32:11;;;;;;;19.83;17.75;;;;;;;5.72;78.78;94829.97;5036987;28;20193;-72
2022/12/07 05:34:38;;;;;;;20.30;18.27;;;;;;;5.75;78.59;94825.78;5019568;28;20213;-72
2022/12/07 05:37:05;;;;;;;20.77;18.67;;;;;;;5.77;78.69;94827.06;5019244;28;20191;-72
2022/12/07 05:39:32;;;;;;;22.70;20.30;;;;;;;5.75;78.37;94823.03;5036604;28;20197;-72
2022/12/07 05:42:15;;;;;;;23.67;21.20;;;;;;;5.66;78.31;94822.25;5019236;28;20195;-72
2022/12/07 05:44:43;;;;;;;26.75;23.92;;;;;;;5.60;78.00;94818.91;5018767;28;20522;-72
2022/12/07 05:47:10;;;;;;;25.65;22.92;;;;;;;5.54;78.12;94822.94;5019048;28;20217;-72
2022/12/07 05:49:38;;;;;;;26.00;22.95;;;;;;;5.54;78.61;94812.81;5036340;28;20507;-72
2022/12/07 05:52:05;;;;;;;25.27;22.52;;;;;;;5.55;78.52;94811.69;5036501;28;20182;-72
2022/12/07 05:54:33;;;;;;;26.48;22.27;;;;;;;5.56;78.84;94807.03;5036225;28;20186;-72
2022/12/07 05:57:02;;;;;;;25.50;21.98;;;;;;;5.61;78.90;94815.03;5036203;28;20190;-72
2022/12/07 05:59:28;;;;;;;24.17;21.55;;;;;;;5.66;78.53;94822.25;5018517;28;20202;-72
2022/12/07 06:01:57;;;;;;;27.00;23.70;;;;;;;5.69;78.36;94803.25;5035248;28;20260;-72
2022/12/07 06:04:27;;;;;;;25.40;22.70;;;;;;;5.70;78.50;94815.81;5035700;28;20524;-72
2022/12/07 06:06:57;;;;;;;29.15;26.25;;;;;;;5.67;78.77;94816.47;5036424;28;20198;-72
2022/12/07 06:09:27;;;;;;;28.33;25.40;;;;;;;5.69;78.49;94814.19;5035776;28;20530;-72
2022/12/07 06:14:47;;;;;;;28.15;25.33;;;;;;;5.77;78.68;94827.06;5018381;28;20276;-72
2022/12/07 06:17:14;;;;;;;30.25;27.05;;;;;;;5.78;78.77;94830.59;5036030;28;20190;-72
2022/12/07 06:19:46;;;;;;;27.38;24.42;;;;;;;5.79;78.58;94829.47;5036160;28;20202;-72
2022/12/07 06:22:17;;;;;;;25.65;22.77;;;;;;;5.79;78.63;94824.78;5035953;28;20191;-72
2022/12/07 06:24:46;;;;;;;26.55;23.75;;;;;;;5.81;78.72;94829.94;5018451;28;20268;-72
2022/12/07 06:27:15;;;;;;;24.95;22.45;;;;;;;5.80;78.62;94831.06;5035623;28;20242;-72
2022/12/07 06:29:44;;;;;;;25.52;22.83;;;;;;;5.79;78.76;94824.78;5035501;28;20221;-72
2022/12/07 06:32:13;;;;;;;23.80;21.20;;;;;;;5.82;78.56;94828.81;5018341;28;20244;-72
2022/12/07 06:34:40;;;;;;;25.13;22.48;;;;;;;5.82;78.35;94833.50;5034961;28;20209;-72
2022/12/07 06:37:07;;;;;;;23.65;21.15;;;;;;;5.80;78.26;94834.59;5035532;28;20265;-72
2022/12/07 06:39:38;;;;;;;23.63;21.23;;;;;;;5.80;78.48;94839.28;5018126;28;20205;-72
2022/12/07 06:42:07;;;;;;;23.08;20.48;;;;;;;5.82;78.70;94838.97;5018432;28;20601;-72
2022/12/07 06:44:35;;;;;;;24.10;21.50;;;;;;;5.84;78.55;94845.69;5035157;28;20284;-72
2022/12/07 06:47:05;;;;;;;26.63;23.05;;;;;;;5.89;78.88;94848.25;5018116;28;20194;-72
2022/12/07 06:49:34;;;;;;;25.70;22.85;;;;;;;5.94;78.49;94845.34;5035493;28;20636;-72
2022/12/07 06:52:04;;;;;;;24.92;22.25;;;;;;;5.91;78.47;94845.19;5018568;28;20245;-72
2022/12/07 06:54:33;;;;;;;25.85;23.25;;;;;;;5.90;77.97;94843.59;5018636;28;20209;-72
2022/12/07 06:57:01;;;;;;;25.33;22.65;;;;;;;5.90;78.43;94843.59;5018608;28;20198;-72
2022/12/07 06:59:28;;;;;;;25.17;22.48;;;;;;;5.90;78.48;94840.84;5018247;28;20207;-72
2022/12/07 07:01:56;;;;;;;23.10;20.67;;;;;;;5.92;78.61;94844.91;5018253;28;20569;-72
2022/12/07 07:04:27;;;;;;;23.88;21.48;;;;;;;5.89;78.04;94842.00;5018262;28;20198;-72
2022/12/07 07:06:57;;;;;;;24.83;22.33;;;;;;;5.92;78.36;94844.91;5035331;28;20217;-72
2022/12/07 07:09:28;;;;;;;26.73;23.88;;;;;;;5.94;78.13;94844.56;5034499;28;20293;-72
2022/12/07 07:11:59;;;;;;;25.88;23.27;;;;;;;5.94;78.25;94848.09;5035178;28;20226;-72
2022/12/07 07:14:30;;;;;;;26.35;23.85;;;;;;;5.93;78.12;94846.50;5018127;28;20194;-72
2022/12/07 07:17:01;;;;;;;27.13;24.42;;;;;;;5.94;78.00;94850.84;5017885;28;20202;-72
2022/12/07 07:19:29;;;;;;;26.52;23.83;;;;;;;5.99;78.21;94849.84;5035206;28;20183;-72
2022/12/07 07:22:00;;;;;;;24.95;22.48;;;;;;;5.99;78.18;94845.19;5034993;28;20209;-73
2022/12/07 07:24:30;;;;;;;25.10;22.55;;;;;;;5.99;78.21;94847.09;5018106;28;20206;-72
2022/12/07 07:26:59;;;;;;;24.70;22.30;;;;;;;6.00;78.74;94846.00;5034414;28;20304;-72
2022/12/07 07:29:26;;;;;;;25.60;22.73;;;;;;;6.01;78.40;94853.88;5035087;28;20190;-72
2022/12/07 07:31:55;;;;;;;23.70;21.20;;;;;;;6.03;78.01;94848.88;5034737;28;20563;-72
2022/12/07 07:34:24;;;;;;;22.95;20.45;;;;;;;6.06;77.87;94849.34;5034788;28;20198;-72
2022/12/07 07:36:56;;;;;;;24.15;21.05;;;;;;;6.05;77.92;94853.22;5035154;28;20270;-72
2022/12/07 07:39:23;;;;;;;25.70;22.73;;;;;;;6.10;78.26;94858.50;5037631;28;20206;-72
2022/12/07 07:41:50;;;;;;;23.92;21.00;;;;;;;6.16;78.12;94855.25;5021733;28;20221;-72
2022/12/07 07:44:21;;;;;;;25.38;22.58;;;;;;;6.24;78.41;94853.59;5021116;28;20626;-72
2022/12/07 07:46:50;;;;;;;25.67;22.50;;;;;;;6.29;78.33;94852.63;5021263;28;20222;-72
2022/12/07 07:49:18;;;;;;;24.90;22.30;;;;;;;6.33;78.03;94857.09;5021606;28;20198;-73
2022/12/07 07:51:48;;;;;;;25.63;22.92;;;;;;;6.37;77.73;94855.28;5022114;28;20198;-73
2022/12/07 07:54:22;;;;;;;25.92;23.13;;;;;;;6.33;77.34;94848.88;5021582;28;20264;-72
2022/12/07 07:56:50;;;;;;;25.58;22.90;;;;;;;6.31;77.54;94842.13;5021468;28;20252;-72
2022/12/07 07:59:21;;;;;;;26.23;22.85;;;;;;;6.35;77.07;94849.34;5021397;28;20202;-72
2022/12/07 08:01:50;;;;;;;25.10;22.15;;;;;;;6.39;76.78;94849.47;5038169;28;20194;-72
2022/12/07 08:04:18;;;;;;;26.85;23.95;;;;;;;6.40;76.62;94842.88;5020775;28;20611;-72
2022/12/07 08:06:47;;;;;;;26.55;23.75;;;;;;;6.36;76.55;94847.44;5038342;28;20229;-72
2022/12/07 08:09:15;;;;;;;27.35;24.45;;;;;;;6.38;76.89;94843.19;5037626;28;20199;-72
2022/12/07 08:11:50;;;;;;;27.02;24.15;;;;;;;6.40;76.76;94846.41;5020876;28;20615;-72
2022/12/07 08:14:19;;;;;;;26.83;24.02;;;;;;;6.43;76.89;94850.44;5037919;28;20197;-72
2022/12/07 08:16:48;;;;;;;27.65;24.63;;;;;;;6.44;76.36;94846.56;5020948;28;20202;-72
2022/12/07 08:19:17;;;;;;;30.13;25.88;;;;;;;6.45;76.17;94843.47;5038136;28;20194;-72
2022/12/07 08:21:45;;;;;;;29.83;26.65;;;;;;;6.41;76.25;94848.00;5020774;28;20680;-72
2022/12/07 08:24:13;;;;;;;31.52;26.42;;;;;;;6.38;76.45;94847.88;5004697;28;20201;-72
2022/12/07 08:26:50;;;;;;;31.48;27.05;;;;;;;6.37;76.77;94841.59;5020346;28;20271;-72
2022/12/07 08:29:22;;;;;;;30.48;26.80;;;;;;;6.40;76.70;94843.69;5036858;28;20198;-72
2022/12/07 08:31:52;;;;;;;29.17;26.10;;;;;;;6.40;76.61;94840.16;5037842;28;20207;-72
2022/12/07 08:34:20;;;;;;;27.65;24.75;;;;;;;6.41;76.63;94836.25;5020740;28;20195;-72
2022/12/07 08:36:49;;;;;;;28.73;25.73;;;;;;;6.43;76.70;94847.69;5020558;28;20209;-72
2022/12/07 08:39:18;;;;;;;30.88;26.60;;;;;;;6.46;76.65;94847.00;5037664;28;20201;-72
2022/12/07 08:41:48;;;;;;;29.48;26.38;;;;;;;6.46;76.34;94847.84;5020653;28;20198;-72
2022/12/07 08:44:15;;;;;;;28.75;25.73;;;;;;;6.49;76.51;94840.88;5037797;28;20206;-72
2022/12/07 08:46:47;;;;;;;32.13;28.55;;;;;;;6.50;76.45;94837.81;5037582;28;20211;-72
2022/12/07 08:49:19;;;;;;;33.45;28.95;;;;;;;6.50;76.35;94829.59;5036273;28;20183;-72
2022/12/07 08:51:47;;;;;;;31.40;28.10;;;;;;;6.50;76.38;94831.53;5019944;28;20623;-72
2022/12/07 08:54:18;;;;;;;32.83;29.10;;;;;;;6.51;76.46;94833.94;5037638;28;20194;-72
2022/12/07 08:56:46;;;;;;;31.20;27.67;;;;;;;6.55;76.58;94838.75;5037550;28;20182;-72
2022/12/07 08:59:17;;;;;;;32.60;29.30;;;;;;;6.63;76.53;94826.94;5020021;28;20194;-72
2022/12/07 09:01:45;;;;;;;33.20;29.77;;;;;;;6.68;76.43;94822.06;5019894;28;20202;-72
2022/12/07 09:04:13;;;;;;;33.67;30.08;;;;;;;6.71;76.15;94815.88;5037108;28;20218;-72
2022/12/07 09:06:41;;;;;;;31.63;28.40;;;;;;;6.73;75.79;94812.81;5037530;28;20218;-72
2022/12/07 09:09:10;;;;;;;33.65;30.08;;;;;;;6.71;76.05;94810.41;5037296;28;20183;-72
2022/12/07 09:11:40;;;;;;;31.10;28.00;;;;;;;6.75;76.13;94805.06;5037146;28;20200;-72
2022/12/07 09:14:12;;;;;;;35.05;31.30;;;;;;;6.89;76.48;94802.03;5036829;28;20273;-72
2022/12/07 09:16:42;;;;;;;36.42;31.67;;;;;;;7.13;76.97;94804.91;5019597;28;20202;-72
2022/12/07 09:19:11;;;;;;;35.38;31.50;;;;;;;7.43;76.84;94808.28;5035962;28;20206;-72
2022/12/07 09:21:39;;;;;;;35.58;31.58;;;;;;;7.67;75.72;94804.81;5036662;28;20206;-72
2022/12/07 09:24:09;;;;;;;38.83;32.45;;;;;;;7.77;73.94;94802.75;5020000;28;20209;-72
2022/12/07 09:26:40;;;;;;;35.63;31.17;;;;;;;7.88;73.85;94798.41;5036374;28;20225;-72
2022/12/07 09:29:08;;;;;;;35.42;31.63;;;;;;;7.92;73.11;94793.88;5015889;28;20258;-73
2022/12/07 09:31:38;;;;;;;35.10;31.20;;;;;;;7.86;72.62;94795.22;5016222;28;20210;-73
2022/12/07 09:34:12;;;;;;;34.47;30.90;;;;;;;7.79;72.60;94792.25;5016807;28;20241;-73
2022/12/07 09:36:40;;;;;;;38.60;32.53;;;;;;;7.77;72.62;94794.50;5016688;28;20183;-73
2022/12/07 09:39:09;;;;;;;37.83;31.88;;;;;;;7.71;72.76;94778.28;5016428;28;20199;-72
2022/12/07 09:41:42;;;;;;;34.53;30.80;;;;;;;7.68;72.69;94776.22;5017142;28;20202;-72
2022/12/07 09:44:12;;;;;;;36.17;31.30;;;;;;;7.67;72.98;94769.13;5016341;28;20187;-72
2022/12/07 09:46:45;;;;;;;33.45;29.65;;;;;;;7.61;73.22;94777.91;5016712;28;20211;-72
2022/12/07 09:49:20;;;;;;;33.30;29.80;;;;;;;7.66;73.36;94781.25;5016467;28;20183;-72
2022/12/07 09:51:49;;;;;;;31.92;28.58;;;;;;;7.66;73.12;94769.44;5016582;28;20195;-72
2022/12/07 09:54:18;;;;;;;32.55;29.17;;;;;;;7.66;72.77;94766.72;5016229;28;20226;-72
2022/12/07 09:56:46;;;;;;;32.10;27.25;;;;;;;7.70;72.96;94756.66;5015688;28;20187;-72
2022/12/07 09:59:18;;;;;;;30.13;26.77;;;;;;;7.72;72.73;94766.16;5030694;28;20215;-72
2022/12/07 10:01:47;;;;;;;31.42;27.92;;;;;;;7.77;72.69;94765.13;5015830;28;20294;-72
2022/12/07 10:04:23;;;;;;;30.98;26.70;;;;;;;7.83;72.42;94763.75;5015871;28;20199;-72
2022/12/07 10:06:50;;;;;;;31.67;27.05;;;;;;;7.96;72.91;94753.59;4999492;28;20227;-72
2022/12/07 10:09:20;;;;;;;31.55;27.77;;;;;;;8.18;72.61;94744.88;5032169;28;20202;-72
2022/12/07 10:12:08;;;;;;;33.08;27.95;;;;;;;8.32;71.90;94754.69;5016621;28;20199;-72
2022/12/07 10:14:40;;;;;;;28.42;25.08;;;;;;;8.46;71.21;94741.41;5016242;28;20269;-73
2022/12/07 10:17:40;;;;;;;30.48;25.90;;;;;;;8.52;70.27;94745.50;5015664;28;20191;-72
2022/12/07 10:20:24;;;;;;;27.98;23.90;;;;;;;8.52;70.13;94733.72;5016475;28;20195;-72
2022/12/07 10:23:01;;;;;;;25.85;23.15;;;;;;;8.52;70.04;94737.25;5015444;28;20221;-72
2022/12/07 10:25:33;;;;;;;26.95;23.30;;;;;;;8.57;69.63;94717.78;5015513;28;20210;-72
2022/12/07 10:28:15;;;;;;;25.55;22.17;;;;;;;8.59;69.75;94709.97;5024732;28;20280;-72
2022/12/07 10:30:50;;;;;;;24.90;22.23;;;;;;;8.56;69.67;94710.69;5035893;28;20186;-72
2022/12/07 10:33:34;;;;;;;25.10;22.38;;;;;;;8.51;69.04;94710.94;5018790;28;20197;-72
2022/12/07 10:36:18;;;;;;;24.98;22.10;;;;;;;8.55;69.44;94706.34;5033397;28;20209;-72
2022/12/07 10:38:56;;;;;;;25.20;22.50;;;;;;;8.58;69.75;94700.16;5035814;28;20569;-72
2022/12/07 10:41:24;;;;;;;25.48;22.88;;;;;;;8.66;69.56;94709.38;5035387;28;20185;-72
2022/12/07 10:43:55;;;;;;;26.27;22.70;;;;;;;8.72;69.73;94699.75;5035711;28;20182;-72
2022/12/07 10:47:04;;;;;;;25.77;23.08;;;;;;;8.75;69.55;94706.47;5018343;28;20228;-72
2022/12/07 10:50:20;;;;;;;25.98;23.05;;;;;;;8.65;69.14;94696.81;4939793;29;20219;-72
2022/12/07 10:53:01;;;;;;;26.52;23.63;;;;;;;8.64;69.35;94695.19;5035661;28;20205;-72
2022/12/07 10:55:39;;;;;;;25.52;22.55;;;;;;;8.73;69.66;94690.34;5018470;28;20202;-72
2022/12/07 10:58:48;;;;;;;28.73;23.65;;;;;;;8.82;69.81;94682.75;5035841;28;20269;-72
2022/12/07 11:01:25;;;;;;;27.50;22.98;;;;;;;8.92;69.28;94676.72;5035581;28;20202;-72
2022/12/07 11:04:13;;;;;;;25.38;21.98;;;;;;;9.10;68.94;94682.69;5035484;28;20198;-72
2022/12/07 11:06:53;;;;;;;24.88;22.05;;;;;;;9.25;68.66;94667.38;5018097;28;20301;-72
2022/12/07 11:09:53;;;;;;;24.10;20.52;;;;;;;9.57;67.65;94672.88;5035156;28;20186;-72
2022/12/07 11:12:30;;;;;;;24.52;20.45;;;;;;;10.07;66.94;94666.59;5013313;28;20217;-72
2022/12/07 11:15:07;;;;;;;27.50;20.95;;;;;;;10.30;65.86;94657.66;5022233;28;20532;-72
2022/12/07 11:17:42;;;;;;;27.55;22.65;;;;;;;10.53;64.76;94654.97;5039744;28;20256;-72
2022/12/07 11:20:22;;;;;;;24.75;22.25;;;;;;;10.62;63.99;94652.81;5039412;28;20521;-72
2022/12/07 11:23:13;;;;;;;24.15;21.20;;;;;;;10.88;63.41;94645.84;5022550;28;20602;-72
2022/12/07 11:25:55;;;;;;;26.42;22.42;;;;;;;11.20;62.51;94644.47;5039808;28;20186;-72
2022/12/07 11:28:36;;;;;;;26.77;21.80;;;;;;;11.54;61.68;94637.16;5038993;28;20226;-73
2022/12/07 11:31:12;;;;;;;23.00;20.55;;;;;;;12.16;60.57;94631.41;5021607;28;20508;-73
2022/12/07 11:33:45;;;;;;;22.98;20.17;;;;;;;12.68;57.33;94623.41;5039032;28;20297;-72
2022/12/07 11:36:24;;;;;;;22.00;19.40;;;;;;;13.57;55.40;94626.31;5021841;28;20210;-72
2022/12/07 11:38:55;;;;;;;23.48;19.00;;;;;;;14.37;52.64;94626.47;5021636;28;20216;-72
2022/12/07 11:41:33;;;;;;;23.80;18.40;;;;;;;15.15;50.63;94623.28;5039193;28;20190;-72
2022/12/07 11:44:06;;;;;;;19.73;17.63;;;;;;;15.78;48.46;94618.22;5039224;28;20281;-72